AirNav   Pilot Hours Calculator
 
 708 users online  

PN34 Keystone Heliplex Heliport
Coatsville, Pennsylvania, USA

GOING TO COATSVILLE?


FAA INFORMATION EFFECTIVE 02 JANUARY 2020

Location

FAA Identifier: PN34
Lat/Long: 39-58-40.9000N 075-52-56.5000W
39-58.681667N 075-52.941667W
39.9780278,-75.8823611
(estimated)
Elevation: 642 ft. / 196 m (estimated)
From city: 2 miles W of COATSVILLE, PA
Time zone: UTC -5 (UTC -4 during Daylight Saving Time)
Zip code: 19365

Heliport Operations

Heliport use: Private use. Permission required prior to landing
Activation date: 11/2007
Control tower: no
ARTCC: NEW YORK CENTER
FSS: WILLIAMSPORT FLIGHT SERVICE STATION
Attendance: 0700-2000
Segmented circle: no

Heliport Communications

WX AWOS-3 at MQS (0.8 nm E): 126.25 (610-384-6132)
WX AWOS-3T at OQN (14 nm E): 121.4 ((610) 692-6190)

Nearby radio navigation aids

VOR radial/distance  VOR name  Freq  Var
MXEr299/10.4MODENA VORTAC113.2009W
LRPr123/20.6LANCASTER VOR/DME117.3009W
PTWr234/20.8POTTSTOWN VORTAC116.5009W
DQOr335/22.0DUPONT VORTAC114.0010W
OODr318/33.7WOODSTOWN VORTAC112.8010W
ETXr203/37.3EAST TEXAS VOR/DME110.2009W

 
NDB name  Hdg/Dist  Freq  Var  ID
AMBLER264/28.827512WING .. -. --.

Heliport Services

Runway Information

Helipad H1

Dimensions: 41 x 41 ft. / 12 x 12 m
Surface: asphalt
Traffic pattern: leftleft

Heliport Ownership and Management from official FAA records

Ownership: Privately-owned
Owner: SIKORSKY COMMERCIAL, INC
110 E. STEWART HUSTON DR
COATESVILLE, PA 19320
Phone 610-883-4566
Manager: CHUCK DILABBIO
110 E. STEWART HUSTON DRIVE
COATESVILLE, PA 19320
Phone 610-883-4565

Additional Remarks

60 FT WTR TWR .32 NM S OF PAD.
TLOF MKD AT 60 FT X 60 FT SQ.
FOR CD CTC PHILADELPHIA APCH AT 800-354-9884.

Instrument Procedures

There are no published instrument procedures at PN34.

Some nearby airports with instrument procedures:

KMQS - Chester County G O Carlson Airport (1 nm E)
N57 - New Garden Airport (10 nm SE)
KOQN - Brandywine Regional Airport (14 nm E)
N47 - Pottstown Municipal Airport (20 nm NE)
KLNS - Lancaster Airport (21 nm NW)
 
Loc | Ops | Rwys | IFR | FBO | Links
Com | Nav | Svcs | Stats | Notes
Aerial photo
WARNING: Photo may not be current or correct
Aerial photo of PN34 (Keystone Heliplex Heliport)
Photo by Stacy Sheard

Do you have a better or more recent aerial photo of Keystone Heliplex Heliport that you would like to share? If so, please send us your photo.

 
Sectional chart

 
Airport distance calculator
Flying to Keystone Heliplex Heliport? Find the distance to fly.

From to PN34

Sunrise and sunset
Times for 19-Jan-2020
 Local
(UTC-5)
 Zulu
(UTC)
Morning civil twilight06:5311:53
Sunrise07:2312:23
Sunset17:0622:06
Evening civil twilight17:3522:35

Current date and time
Zulu (UTC)  19-Jan-2020 11:43:12
Local (UTC-5)  19-Jan-2020 06:43:12
 
METAR
KMQS 191115Z AUTO 31011KT 6SM BR SCT001 01/01 A2973 RMK AO2
KOQN 
14nm E 
191115Z AUTO 27005KT 10SM CLR 01/01 A2972 RMK AO2
TAF
KLNS 
21nm NW 
190925Z 1909/2006 24003KT 5SM BR OVC005 FM191200 27008KT P6SM OVC025 FM191400 29015G25KT P6SM OVC050 FM192100 30015G25KT P6SM SKC
KILG 
23nm SE 
190906Z 1909/2006 27008KT P6SM BKN008 OVC060 TEMPO 1909/1911 SCT008 BKN060 FM191100 28010KT P6SM BKN045 FM191400 29016G28KT P6SM SCT045 FM192300 30012G20KT P6SM SCT045 TEMPO 2004/2006 BKN045
KRDG 
24nm N 
191009Z 1910/2006 27006KT P6SM BKN006 OVC060 TEMPO 1911/1912 SCT006 BKN060 FM191200 28010KT P6SM BKN045 FM191400 29014G26KT P6SM BKN045 FM192300 31010G18KT P6SM SCT045 TEMPO 2003/2006 BKN045
NOTAMs
Click for the latest NOTAMs
NOTAMs are issued by the DoD/FAA and will open in a separate window not controlled by AirNav.

 

 
 

Would you like to see your business listed on this page?

 If your business provides an interesting product or service to pilots, flight crews, aircraft, or users of the Keystone Heliplex Heliport, you should consider listing it here.  To start the listing process, click on the button below
 
Add a business
 

Other Pages about Keystone Heliplex Heliport

Update a link
 
Copyright © AirNav, LLC. All rights reserved. Privacy Policy  Contact